createdAt,value
2018-04-23T00:01:15.392Z,14.33
2018-04-23T00:04:17.886Z,14.36
2018-04-23T00:07:20.461Z,14.38
2018-04-23T00:10:22.924Z,14.40
2018-04-23T00:13:25.436Z,14.36
2018-04-23T00:16:27.900Z,14.37
2018-04-23T00:19:30.457Z,14.43
2018-04-23T00:22:32.953Z,14.60
2018-04-23T00:25:35.442Z,14.53
2018-04-23T00:28:37.948Z,14.57
2018-04-23T00:31:40.617Z,14.48
2018-04-23T00:34:43.110Z,14.41
2018-04-23T00:37:45.604Z,14.40
2018-04-23T00:40:48.080Z,14.33
2018-04-23T00:43:50.593Z,14.32
2018-04-23T00:46:53.078Z,14.44
2018-04-23T00:49:55.565Z,14.50
2018-04-23T00:53:09.975Z,14.50
2018-04-23T00:56:12.477Z,14.50
2018-04-23T00:59:14.927Z,14.47
2018-04-23T01:02:17.429Z,14.41
2018-04-23T01:05:19.940Z,14.50
2018-04-23T01:08:22.416Z,14.53
2018-04-23T01:11:24.950Z,14.50
2018-04-23T01:14:27.536Z,14.49
2018-04-23T01:17:30.022Z,14.48
2018-04-23T01:20:32.520Z,14.43
2018-04-23T01:23:35.075Z,14.48
2018-04-23T01:26:37.596Z,14.66
2018-04-23T01:29:40.126Z,14.68
2018-04-23T01:32:42.618Z,14.74
2018-04-23T01:35:45.127Z,15.12
2018-04-23T01:38:47.586Z,15.28
2018-04-23T01:41:50.088Z,15.25
2018-04-23T01:44:52.596Z,15.38
2018-04-23T01:47:55.081Z,15.36
2018-04-23T01:50:57.566Z,15.30
2018-04-23T01:54:00.011Z,15.19
2018-04-23T01:57:02.592Z,15.19
2018-04-23T02:00:05.161Z,15.21
2018-04-23T02:03:07.637Z,15.21
2018-04-23T02:06:10.192Z,15.21
2018-04-23T02:09:12.711Z,15.21
2018-04-23T02:12:15.207Z,15.10
2018-04-23T02:15:17.660Z,15.12
2018-04-23T02:18:20.174Z,15.06
2018-04-23T02:21:22.699Z,14.99
2018-04-23T02:24:25.178Z,15.04
2018-04-23T02:27:27.643Z,14.98
2018-04-23T02:30:30.173Z,14.97
2018-04-23T02:33:32.643Z,15.01
2018-04-23T02:36:35.133Z,15.00
2018-04-23T02:39:37.645Z,15.00
2018-04-23T02:42:40.152Z,14.97
2018-04-23T02:45:42.677Z,14.96
2018-04-23T02:48:45.254Z,14.93
2018-04-23T02:51:47.775Z,14.98
2018-04-23T02:54:50.228Z,14.98
2018-04-23T02:57:52.717Z,14.95
2018-04-23T03:00:55.231Z,14.94
2018-04-23T03:03:57.719Z,14.85
2018-04-23T03:07:00.237Z,14.88
2018-04-23T03:10:02.718Z,14.94
2018-04-23T03:13:05.216Z,14.95
2018-04-23T03:16:07.711Z,14.98
2018-04-23T03:19:10.212Z,15.02
2018-04-23T03:22:12.722Z,14.96
2018-04-23T03:25:15.208Z,14.98
2018-04-23T03:28:17.672Z,14.99
2018-04-23T03:31:20.412Z,14.96
2018-04-23T03:34:22.925Z,14.96
2018-04-23T03:37:25.440Z,14.97
2018-04-23T03:40:27.894Z,14.91
2018-04-23T03:43:30.390Z,14.89
2018-04-23T03:46:32.868Z,14.80
2018-04-23T03:49:35.372Z,14.77
2018-04-23T03:52:37.940Z,14.78
2018-04-23T03:55:40.499Z,14.77
2018-04-23T03:58:43.064Z,14.77
2018-04-23T04:01:45.533Z,14.74
2018-04-23T04:04:48.023Z,14.80
2018-04-23T04:07:50.649Z,14.77
2018-04-23T04:10:53.129Z,14.80
2018-04-23T04:14:07.304Z,14.75
2018-04-23T04:17:09.848Z,14.75
2018-04-23T04:20:12.368Z,14.78
2018-04-23T04:26:24.653Z,14.78
2018-04-23T04:29:27.159Z,14.81
2018-04-23T04:32:29.677Z,14.80
2018-04-23T04:35:32.213Z,14.87
2018-04-23T04:38:34.690Z,14.93
2018-04-23T04:41:37.235Z,14.87
2018-04-23T04:44:40.019Z,14.92
2018-04-23T04:47:42.593Z,14.91
2018-04-23T04:50:45.155Z,14.88
2018-04-23T04:53:47.664Z,14.85
2018-04-23T04:56:50.169Z,14.85
2018-04-23T04:59:52.688Z,14.86
2018-04-23T05:02:55.208Z,14.88
2018-04-23T05:05:57.729Z,14.89
2018-04-23T05:09:00.212Z,15.01
2018-04-23T05:12:02.655Z,15.36
2018-04-23T05:15:05.161Z,15.51
2018-04-23T05:18:07.685Z,15.58
2018-04-23T05:21:10.159Z,15.11
2018-04-23T05:24:12.687Z,15.06
2018-04-23T05:27:15.150Z,15.01
2018-04-23T05:30:17.751Z,15.03
2018-04-23T05:33:20.254Z,15.09
2018-04-23T05:36:22.720Z,15.25
2018-04-23T05:39:25.180Z,15.11
2018-04-23T05:42:27.700Z,15.08
2018-04-23T05:45:30.178Z,15.13
2018-04-23T05:48:32.616Z,15.33
2018-04-23T05:51:35.073Z,15.69
2018-04-23T05:54:37.604Z,15.82
2018-04-23T05:57:40.073Z,15.61
2018-04-23T06:00:42.610Z,15.46
2018-04-23T06:03:45.108Z,15.23
2018-04-23T06:06:47.543Z,15.16
2018-04-23T06:09:50.042Z,15.16
2018-04-23T06:12:52.543Z,15.18
2018-04-23T06:15:55.172Z,15.15
2018-04-23T06:18:57.668Z,15.07
2018-04-23T06:22:00.178Z,15.34
2018-04-23T06:25:02.704Z,15.57
2018-04-23T06:28:05.258Z,15.81
2018-04-23T06:31:07.708Z,16.86
2018-04-23T06:34:10.165Z,18.15
2018-04-23T06:37:12.669Z,18.82
2018-04-23T06:40:15.165Z,18.39
2018-04-23T06:43:17.655Z,19.52
2018-04-23T06:46:20.193Z,17.77
2018-04-23T06:49:22.694Z,17.77
2018-04-23T06:52:25.219Z,16.82
2018-04-23T06:55:27.663Z,17.46
2018-04-23T06:58:30.167Z,17.91
2018-04-23T07:01:32.657Z,17.32
2018-04-23T07:04:35.260Z,17.29
2018-04-23T07:07:37.772Z,17.77
2018-04-23T07:10:40.299Z,17.49
2018-04-23T07:13:42.792Z,17.19
2018-04-23T07:16:45.241Z,16.77
2018-04-23T07:19:47.740Z,16.48
2018-04-23T07:22:50.244Z,16.56
2018-04-23T07:25:52.756Z,16.94
2018-04-23T07:32:04.057Z,17.10
2018-04-23T07:35:06.524Z,17.08
2018-04-23T07:38:09.000Z,17.04
2018-04-23T07:41:11.459Z,16.78
2018-04-23T07:44:13.948Z,17.28
2018-04-23T07:47:16.562Z,17.04
2018-04-23T07:50:19.066Z,16.61
2018-04-23T07:53:21.517Z,16.32
2018-04-23T07:56:24.017Z,16.71
2018-04-23T07:59:26.559Z,16.61
2018-04-23T08:02:29.016Z,16.77
2018-04-23T08:05:31.534Z,16.74
2018-04-23T08:08:34.009Z,17.33
2018-04-23T08:11:36.656Z,16.77
2018-04-23T08:14:39.142Z,17.11
2018-04-23T08:17:41.650Z,17.19
2018-04-23T08:20:44.244Z,17.13
2018-04-23T08:23:46.714Z,17.22
2018-04-23T08:26:49.216Z,17.25
2018-04-23T08:29:51.781Z,17.34
2018-04-23T08:32:54.285Z,16.86
2018-04-23T08:35:56.845Z,16.84
2018-04-23T08:38:59.278Z,16.82
2018-04-23T08:42:01.810Z,16.96
2018-04-23T08:45:04.326Z,16.54
2018-04-23T08:48:06.815Z,16.36
2018-04-23T08:51:09.337Z,16.55
2018-04-23T08:54:11.830Z,16.85
2018-04-23T08:57:14.381Z,17.36
2018-04-23T09:00:16.944Z,17.19
2018-04-23T09:03:19.412Z,17.09
2018-04-23T09:06:21.903Z,17.25
2018-04-23T09:09:24.386Z,17.07
2018-04-23T09:12:26.903Z,17.23
2018-04-23T09:15:29.392Z,17.34
2018-04-23T09:18:31.915Z,17.03
2018-04-23T09:21:34.393Z,17.09
2018-04-23T09:24:36.846Z,17.19
2018-04-23T09:27:39.324Z,17.52
2018-04-23T09:30:41.776Z,17.58
2018-04-23T09:33:44.282Z,17.76
2018-04-23T09:36:46.766Z,17.46
2018-04-23T09:39:49.235Z,17.54
2018-04-23T09:42:51.735Z,17.63
2018-04-23T09:45:54.271Z,18.07
2018-04-23T09:48:56.817Z,18.02
2018-04-23T09:51:59.316Z,17.94
2018-04-23T09:55:01.799Z,18.17
2018-04-23T09:58:04.277Z,17.64
2018-04-23T10:01:12.498Z,17.40
2018-04-23T10:04:20.874Z,17.31
2018-04-23T10:07:23.386Z,17.17
2018-04-23T10:10:25.842Z,17.48
2018-04-23T10:13:28.347Z,17.45
2018-04-23T10:16:30.811Z,17.74
2018-04-23T10:19:33.430Z,18.24
2018-04-23T10:22:35.871Z,18.34
2018-04-23T10:25:38.420Z,17.31
2018-04-23T10:28:40.947Z,17.56
2018-04-23T10:31:43.543Z,17.29
2018-04-23T10:34:46.033Z,17.84
2018-04-23T10:37:48.533Z,17.70
2018-04-23T10:40:51.069Z,18.08
2018-04-23T10:43:53.534Z,17.99
2018-04-23T10:46:56.019Z,17.91
2018-04-23T10:49:58.490Z,17.48
2018-04-23T10:53:00.963Z,17.70
2018-04-23T10:56:03.456Z,17.55
2018-04-23T10:59:06.652Z,17.40
2018-04-23T11:02:09.154Z,17.55
2018-04-23T11:05:11.589Z,17.49
2018-04-23T11:08:14.060Z,17.59
2018-04-23T11:11:16.555Z,18.25
2018-04-23T11:14:19.133Z,18.08
2018-04-23T11:17:21.608Z,18.22
2018-04-23T11:20:24.118Z,17.77
2018-04-23T11:23:27.352Z,17.43
2018-04-23T11:26:29.893Z,17.47
2018-04-23T11:29:32.358Z,17.78
2018-04-23T11:32:34.969Z,18.22
2018-04-23T11:35:37.459Z,18.29
2018-04-23T11:38:39.944Z,18.02
2018-04-23T11:41:42.585Z,17.52
2018-04-23T11:44:45.093Z,18.02
2018-04-23T11:47:47.580Z,18.15
2018-04-23T11:50:50.063Z,18.07
2018-04-23T11:53:52.565Z,18.84
2018-04-23T11:56:55.103Z,18.85
2018-04-23T11:59:57.616Z,18.57
2018-04-23T12:03:00.140Z,18.65
2018-04-23T12:06:02.696Z,19.21
2018-04-23T12:09:06.068Z,19.79
2018-04-23T12:12:08.597Z,19.54
2018-04-23T12:15:11.215Z,19.33
2018-04-23T12:18:13.684Z,19.42
2018-04-23T12:21:16.213Z,19.80
2018-04-23T12:24:18.746Z,19.81
2018-04-23T12:27:21.247Z,19.52
2018-04-23T12:30:23.789Z,19.33
2018-04-23T12:33:26.242Z,19.20
2018-04-23T12:36:28.743Z,18.88
2018-04-23T12:39:31.289Z,18.70
2018-04-23T12:42:33.808Z,17.96
2018-04-23T12:45:36.345Z,17.87
2018-04-23T12:48:38.875Z,18.40
2018-04-23T12:51:41.435Z,18.29
2018-04-23T12:54:43.906Z,18.40
2018-04-23T12:57:46.401Z,18.85
2018-04-23T13:00:48.970Z,18.34
2018-04-23T13:03:51.484Z,18.02
2018-04-23T13:06:54.029Z,18.62
2018-04-23T13:09:56.478Z,18.74
2018-04-23T13:12:58.980Z,18.21
2018-04-23T13:16:01.476Z,18.29
2018-04-23T13:19:03.981Z,18.13
2018-04-23T13:22:06.491Z,18.15
2018-04-23T13:25:08.941Z,17.97
2018-04-23T13:28:11.420Z,17.94
2018-04-23T13:31:13.925Z,18.11
2018-04-23T13:34:16.380Z,18.46
2018-04-23T13:37:19.006Z,18.15
2018-04-23T13:40:21.460Z,18.32
2018-04-23T13:43:23.961Z,18.58
2018-04-23T13:46:26.421Z,18.80
2018-04-23T13:49:28.945Z,18.70
2018-04-23T13:52:31.405Z,18.24
2018-04-23T13:55:33.979Z,18.05
2018-04-23T13:58:36.426Z,18.54
2018-04-23T14:01:38.965Z,18.80
2018-04-23T14:04:41.511Z,19.14
2018-04-23T14:07:44.134Z,19.30
2018-04-23T14:10:46.605Z,19.27
2018-04-23T14:13:49.070Z,19.33
2018-04-23T14:16:51.552Z,19.11
2018-04-23T14:19:54.055Z,18.96
2018-04-23T14:22:56.606Z,19.38
2018-04-23T14:25:59.141Z,19.28
2018-04-23T14:29:01.600Z,19.14
2018-04-23T14:32:04.105Z,19.07
2018-04-23T14:35:06.587Z,19.47
2018-04-23T14:38:09.122Z,20.02
2018-04-23T14:41:11.700Z,19.45
2018-04-23T14:44:14.316Z,19.18
2018-04-23T14:47:16.882Z,19.61
2018-04-23T14:50:19.358Z,19.74
2018-04-23T14:53:21.867Z,19.04
2018-04-23T14:56:24.423Z,19.33
2018-04-23T14:59:26.907Z,18.91
2018-04-23T15:02:29.492Z,18.74
2018-04-23T15:05:32.001Z,18.50
2018-04-23T15:08:34.487Z,18.30
2018-04-23T15:11:36.999Z,18.34
2018-04-23T15:14:39.466Z,17.74
2018-04-23T15:17:41.991Z,18.07
2018-04-23T15:20:44.504Z,18.11
2018-04-23T15:23:46.987Z,17.83
2018-04-23T15:26:49.509Z,18.05
2018-04-23T15:29:52.000Z,17.79
2018-04-23T15:32:54.504Z,17.68
2018-04-23T15:35:56.980Z,17.81
2018-04-23T15:38:59.488Z,17.48
2018-04-23T15:42:02.061Z,17.54
2018-04-23T15:45:04.530Z,17.59
2018-04-23T15:48:07.012Z,17.38
2018-04-23T15:51:09.592Z,17.38
2018-04-23T15:54:12.114Z,17.64
2018-04-23T15:57:14.620Z,17.20
2018-04-23T16:00:17.146Z,17.40
2018-04-23T16:03:19.639Z,17.26
2018-04-23T16:06:22.179Z,17.63
2018-04-23T16:09:24.677Z,17.46
2018-04-23T16:12:27.200Z,17.41
2018-04-23T16:15:29.716Z,17.30
2018-04-23T16:18:32.216Z,17.30
2018-04-23T16:21:34.788Z,17.39
2018-04-23T16:24:37.324Z,17.17
2018-04-23T16:27:39.926Z,17.16
2018-04-23T16:30:42.424Z,17.25
2018-04-23T16:33:44.976Z,17.15
2018-04-23T16:36:47.480Z,17.34
2018-04-23T16:39:49.998Z,17.05
2018-04-23T16:42:52.531Z,16.84
2018-04-23T16:45:55.046Z,16.91
2018-04-23T16:48:57.520Z,17.05
2018-04-23T16:52:00.092Z,17.00
2018-04-23T16:55:02.651Z,16.64
2018-04-23T16:58:05.160Z,16.52
2018-04-23T17:01:07.617Z,16.32
2018-04-23T17:04:10.142Z,16.32
2018-04-23T17:07:12.613Z,16.22
2018-04-23T17:10:15.146Z,16.46
2018-04-23T17:13:17.716Z,16.46
2018-04-23T17:16:20.253Z,16.54
2018-04-23T17:19:22.811Z,16.60
2018-04-23T17:22:25.308Z,16.54
2018-04-23T17:25:27.826Z,16.37
2018-04-23T17:28:30.284Z,16.10
2018-04-23T17:31:32.821Z,16.32
2018-04-23T17:34:35.326Z,16.44
2018-04-23T17:37:37.969Z,16.29
2018-04-23T17:40:40.476Z,16.31
2018-04-23T17:43:42.961Z,15.96
2018-04-23T17:46:45.477Z,15.71
2018-04-23T17:49:48.017Z,15.62
2018-04-23T17:52:50.600Z,15.73
2018-04-23T17:55:53.161Z,15.54
2018-04-23T17:58:55.679Z,15.43
2018-04-23T18:01:58.204Z,15.47
2018-04-23T18:05:00.762Z,15.26
2018-04-23T18:08:03.298Z,15.11
2018-04-23T18:11:05.831Z,14.97
2018-04-23T18:14:08.414Z,14.82
2018-04-23T18:17:10.952Z,14.71
2018-04-23T18:20:13.459Z,14.65
2018-04-23T18:23:15.974Z,14.48
2018-04-23T18:26:18.534Z,14.37
2018-04-23T18:29:21.090Z,14.30
2018-04-23T18:32:23.614Z,14.32
2018-04-23T18:35:26.122Z,14.27
2018-04-23T18:38:28.620Z,14.17
2018-04-23T18:41:31.135Z,14.04
2018-04-23T18:44:33.666Z,14.04
2018-04-23T18:47:36.195Z,13.90
2018-04-23T18:50:38.767Z,13.71
2018-04-23T18:53:41.195Z,13.56
2018-04-23T18:56:43.754Z,13.52
2018-04-23T18:59:46.282Z,13.46
2018-04-23T19:02:48.753Z,13.39
2018-04-23T19:05:51.248Z,13.39
2018-04-23T19:08:53.763Z,13.32
2018-04-23T19:11:56.280Z,13.18
2018-04-23T19:14:58.803Z,13.07
2018-04-23T19:18:01.381Z,13.10
2018-04-23T19:21:03.950Z,13.04
2018-04-23T19:24:06.474Z,13.01
2018-04-23T19:27:08.975Z,12.92
2018-04-23T19:30:11.490Z,12.87
2018-04-23T19:33:14.047Z,12.89
2018-04-23T19:36:16.613Z,12.85
2018-04-23T19:39:19.219Z,12.79
2018-04-23T19:42:21.670Z,12.79
2018-04-23T19:45:24.163Z,12.78
2018-04-23T19:48:26.805Z,12.77
2018-04-23T19:51:29.377Z,12.75
2018-04-23T19:54:31.902Z,12.76
2018-04-23T19:57:34.468Z,12.80
2018-04-23T20:00:36.988Z,12.77
2018-04-23T20:03:39.497Z,12.69
2018-04-23T20:06:42.049Z,12.69
2018-04-23T20:09:44.647Z,12.69
2018-04-23T20:12:47.104Z,12.62
2018-04-23T20:15:49.626Z,12.53
2018-04-23T20:18:52.113Z,12.43
2018-04-23T20:21:54.650Z,12.40
2018-04-23T20:24:57.154Z,12.34
2018-04-23T20:27:59.688Z,12.26
2018-04-23T20:31:02.179Z,12.25
2018-04-23T20:34:04.708Z,12.21
2018-04-23T20:37:07.181Z,12.16
2018-04-23T20:40:09.758Z,12.10
2018-04-23T20:43:12.242Z,12.11
2018-04-23T20:46:14.766Z,12.06
2018-04-23T20:49:17.271Z,12.03
2018-04-23T20:52:19.740Z,11.97
2018-04-23T20:55:22.284Z,11.96
2018-04-23T20:58:24.890Z,11.88
2018-04-23T21:01:27.379Z,11.84
2018-04-23T21:04:29.893Z,11.84
2018-04-23T21:07:32.340Z,11.78
2018-04-23T21:10:34.830Z,11.73
2018-04-23T21:13:37.339Z,11.73
2018-04-23T21:16:39.839Z,11.73
2018-04-23T21:19:42.351Z,11.61
2018-04-23T21:22:44.820Z,11.62
2018-04-23T21:25:47.381Z,11.54
2018-04-23T21:28:49.850Z,11.49
2018-04-23T21:31:52.404Z,11.41
2018-04-23T21:34:54.890Z,11.41
2018-04-23T21:37:57.421Z,11.32
2018-04-23T21:40:59.981Z,11.29
2018-04-23T21:44:02.559Z,11.18
2018-04-23T21:47:05.235Z,11.05
2018-04-23T21:50:07.681Z,10.86
2018-04-23T21:53:10.162Z,10.71
2018-04-23T21:56:12.607Z,10.63
2018-04-23T21:59:15.081Z,10.63
2018-04-23T22:02:17.532Z,10.54
2018-04-23T22:05:19.962Z,10.46
2018-04-23T22:08:22.450Z,10.37
2018-04-23T22:11:24.952Z,10.29
2018-04-23T22:14:27.452Z,10.21
2018-04-23T22:17:29.941Z,10.12
2018-04-23T22:20:32.387Z,10.10
2018-04-23T22:23:34.902Z,9.98
2018-04-23T22:26:37.341Z,9.94
2018-04-23T22:29:39.830Z,9.90
2018-04-23T22:32:42.395Z,9.92
2018-04-23T22:35:44.866Z,9.89
2018-04-23T22:38:47.415Z,9.85
2018-04-23T22:41:49.878Z,9.80
2018-04-23T22:44:52.297Z,9.75
2018-04-23T22:47:54.782Z,9.75
2018-04-23T22:50:57.262Z,9.79
2018-04-23T22:53:59.740Z,9.80
2018-04-23T22:57:02.208Z,9.81
2018-04-23T23:00:04.695Z,9.83
2018-04-23T23:03:07.180Z,9.90
2018-04-23T23:06:09.620Z,9.98
2018-04-23T23:09:12.189Z,10.06
2018-04-23T23:12:14.660Z,10.12
2018-04-23T23:15:17.175Z,10.15
2018-04-23T23:18:19.614Z,10.18
2018-04-23T23:21:22.083Z,10.15
2018-04-23T23:24:24.560Z,10.16
2018-04-23T23:27:27.071Z,10.20
2018-04-23T23:30:29.597Z,10.21
2018-04-23T23:33:32.053Z,10.21
2018-04-23T23:36:34.586Z,10.26
2018-04-23T23:39:37.067Z,10.25
2018-04-23T23:42:39.531Z,10.21
2018-04-23T23:45:42.016Z,10.14
2018-04-23T23:48:44.565Z,10.11
2018-04-23T23:51:47.015Z,10.13
2018-04-23T23:54:49.480Z,10.15
2018-04-23T23:57:51.980Z,10.11
